sensor_id;sensor_type;location;lat;lon;timestamp;temperature;humidity
17415;DHT22;8825;48.086;16.426;2023-03-16T00:01:11;6.70;55.80
17415;DHT22;8825;48.086;16.426;2023-03-16T00:03:39;6.60;56.00
17415;DHT22;8825;48.086;16.426;2023-03-16T00:06:06;6.60;56.10
17415;DHT22;8825;48.086;16.426;2023-03-16T00:08:34;6.60;56.20
17415;DHT22;8825;48.086;16.426;2023-03-16T00:11:02;6.50;56.40
17415;DHT22;8825;48.086;16.426;2023-03-16T00:13:30;6.50;56.50
17415;DHT22;8825;48.086;16.426;2023-03-16T00:15:59;6.50;56.50
17415;DHT22;8825;48.086;16.426;2023-03-16T00:18:30;6.50;56.70
17415;DHT22;8825;48.086;16.426;2023-03-16T00:21:00;6.40;56.50
17415;DHT22;8825;48.086;16.426;2023-03-16T00:23:28;6.40;56.50
17415;DHT22;8825;48.086;16.426;2023-03-16T00:25:56;6.40;56.50
17415;DHT22;8825;48.086;16.426;2023-03-16T00:28:26;6.40;56.70
17415;DHT22;8825;48.086;16.426;2023-03-16T00:30:54;6.40;56.70
17415;DHT22;8825;48.086;16.426;2023-03-16T00:33:25;6.40;56.80
17415;DHT22;8825;48.086;16.426;2023-03-16T00:35:53;6.40;56.90
17415;DHT22;8825;48.086;16.426;2023-03-16T00:38:22;6.40;56.90
17415;DHT22;8825;48.086;16.426;2023-03-16T00:40:49;6.40;56.70
17415;DHT22;8825;48.086;16.426;2023-03-16T00:43:17;6.40;57.00
17415;DHT22;8825;48.086;16.426;2023-03-16T00:45:45;6.30;57.00
17415;DHT22;8825;48.086;16.426;2023-03-16T00:48:12;6.30;57.00
17415;DHT22;8825;48.086;16.426;2023-03-16T00:50:40;6.20;57.20
17415;DHT22;8825;48.086;16.426;2023-03-16T00:53:08;6.20;57.20
17415;DHT22;8825;48.086;16.426;2023-03-16T00:55:36;6.20;57.30
17415;DHT22;8825;48.086;16.426;2023-03-16T00:58:03;6.20;57.30
17415;DHT22;8825;48.086;16.426;2023-03-16T01:00:31;6.20;57.30
17415;DHT22;8825;48.086;16.426;2023-03-16T01:02:59;6.10;57.40
17415;DHT22;8825;48.086;16.426;2023-03-16T01:05:27;6.10;57.40
17415;DHT22;8825;48.086;16.426;2023-03-16T01:07:54;6.10;57.50
17415;DHT22;8825;48.086;16.426;2023-03-16T01:10:22;6.10;57.50
17415;DHT22;8825;48.086;16.426;2023-03-16T01:12:50;6.00;57.50
17415;DHT22;8825;48.086;16.426;2023-03-16T01:15:19;6.00;57.40
17415;DHT22;8825;48.086;16.426;2023-03-16T01:17:47;6.00;57.40
17415;DHT22;8825;48.086;16.426;2023-03-16T01:20:14;6.00;57.50
17415;DHT22;8825;48.086;16.426;2023-03-16T01:22:44;6.00;57.50
17415;DHT22;8825;48.086;16.426;2023-03-16T01:25:12;5.90;57.50
17415;DHT22;8825;48.086;16.426;2023-03-16T01:27:41;5.90;57.50
17415;DHT22;8825;48.086;16.426;2023-03-16T01:30:10;5.90;57.50
17415;DHT22;8825;48.086;16.426;2023-03-16T01:32:41;5.90;57.50
17415;DHT22;8825;48.086;16.426;2023-03-16T01:35:09;5.90;57.50
17415;DHT22;8825;48.086;16.426;2023-03-16T01:37:37;5.80;57.60
17415;DHT22;8825;48.086;16.426;2023-03-16T01:40:05;5.80;57.60
17415;DHT22;8825;48.086;16.426;2023-03-16T01:42:59;5.80;57.60
17415;DHT22;8825;48.086;16.426;2023-03-16T01:48:20;5.80;57.60
17415;DHT22;8825;48.086;16.426;2023-03-16T01:50:48;5.70;57.70
17415;DHT22;8825;48.086;16.426;2023-03-16T01:53:15;5.70;57.80
17415;DHT22;8825;48.086;16.426;2023-03-16T01:55:43;5.70;58.00
17415;DHT22;8825;48.086;16.426;2023-03-16T01:58:12;5.70;57.90
17415;DHT22;8825;48.086;16.426;2023-03-16T02:00:40;5.70;57.90
17415;DHT22;8825;48.086;16.426;2023-03-16T02:03:12;5.60;57.70
17415;DHT22;8825;48.086;16.426;2023-03-16T02:05:43;5.60;57.80
17415;DHT22;8825;48.086;16.426;2023-03-16T02:08:11;5.60;57.80
17415;DHT22;8825;48.086;16.426;2023-03-16T02:10:39;5.60;57.80
17415;DHT22;8825;48.086;16.426;2023-03-16T02:13:07;5.60;57.90
17415;DHT22;8825;48.086;16.426;2023-03-16T02:15:35;5.50;57.80
17415;DHT22;8825;48.086;16.426;2023-03-16T02:18:03;5.50;57.90
17415;DHT22;8825;48.086;16.426;2023-03-16T02:23:18;5.50;58.00
17415;DHT22;8825;48.086;16.426;2023-03-16T02:31:17;5.30;58.20
17415;DHT22;8825;48.086;16.426;2023-03-16T02:33:46;5.30;58.30
17415;DHT22;8825;48.086;16.426;2023-03-16T02:36:17;5.30;58.30
17415;DHT22;8825;48.086;16.426;2023-03-16T02:38:45;5.30;58.40
17415;DHT22;8825;48.086;16.426;2023-03-16T02:41:15;5.20;58.40
17415;DHT22;8825;48.086;16.426;2023-03-16T02:44:07;5.20;58.50
17415;DHT22;8825;48.086;16.426;2023-03-16T02:46:14;5.20;58.50
17415;DHT22;8825;48.086;16.426;2023-03-16T02:49:07;5.20;58.50
17415;DHT22;8825;48.086;16.426;2023-03-16T02:51:35;5.20;58.50
17415;DHT22;8825;48.086;16.426;2023-03-16T02:54:03;5.20;58.70
17415;DHT22;8825;48.086;16.426;2023-03-16T02:56:30;5.20;58.70
17415;DHT22;8825;48.086;16.426;2023-03-16T02:58:58;5.20;58.70
17415;DHT22;8825;48.086;16.426;2023-03-16T03:01:25;5.10;58.80
17415;DHT22;8825;48.086;16.426;2023-03-16T03:03:53;5.20;58.80
17415;DHT22;8825;48.086;16.426;2023-03-16T03:06:20;5.10;58.80
17415;DHT22;8825;48.086;16.426;2023-03-16T03:08:49;5.10;58.80
17415;DHT22;8825;48.086;16.426;2023-03-16T03:11:17;5.10;58.80
17415;DHT22;8825;48.086;16.426;2023-03-16T03:13:45;5.10;58.90
17415;DHT22;8825;48.086;16.426;2023-03-16T03:16:13;5.10;58.90
17415;DHT22;8825;48.086;16.426;2023-03-16T03:18:41;5.10;59.00
17415;DHT22;8825;48.086;16.426;2023-03-16T03:21:08;5.10;59.00
17415;DHT22;8825;48.086;16.426;2023-03-16T03:23:36;5.10;59.00
17415;DHT22;8825;48.086;16.426;2023-03-16T03:26:04;5.10;59.00
17415;DHT22;8825;48.086;16.426;2023-03-16T03:28:32;5.00;59.00
17415;DHT22;8825;48.086;16.426;2023-03-16T03:30:59;5.00;59.00
17415;DHT22;8825;48.086;16.426;2023-03-16T03:33:27;5.00;59.10
17415;DHT22;8825;48.086;16.426;2023-03-16T03:35:56;5.00;59.10
17415;DHT22;8825;48.086;16.426;2023-03-16T03:38:25;4.90;59.20
17415;DHT22;8825;48.086;16.426;2023-03-16T03:40:53;4.90;59.20
17415;DHT22;8825;48.086;16.426;2023-03-16T03:43:22;4.90;59.20
17415;DHT22;8825;48.086;16.426;2023-03-16T03:45:58;4.90;59.20
17415;DHT22;8825;48.086;16.426;2023-03-16T03:48:26;4.90;59.30
17415;DHT22;8825;48.086;16.426;2023-03-16T03:50:54;4.90;59.30
17415;DHT22;8825;48.086;16.426;2023-03-16T03:53:22;4.90;59.20
17415;DHT22;8825;48.086;16.426;2023-03-16T03:55:49;4.90;59.20
17415;DHT22;8825;48.086;16.426;2023-03-16T03:58:17;4.90;59.20
17415;DHT22;8825;48.086;16.426;2023-03-16T04:00:44;4.80;59.20
17415;DHT22;8825;48.086;16.426;2023-03-16T04:03:12;4.90;59.20
17415;DHT22;8825;48.086;16.426;2023-03-16T04:05:39;4.80;59.20
17415;DHT22;8825;48.086;16.426;2023-03-16T04:08:07;4.80;59.20
17415;DHT22;8825;48.086;16.426;2023-03-16T04:10:34;4.80;59.30
17415;DHT22;8825;48.086;16.426;2023-03-16T04:13:02;4.80;59.20
17415;DHT22;8825;48.086;16.426;2023-03-16T04:15:30;4.80;59.30
17415;DHT22;8825;48.086;16.426;2023-03-16T04:17:58;4.80;59.90
17415;DHT22;8825;48.086;16.426;2023-03-16T04:20:27;4.70;59.20
17415;DHT22;8825;48.086;16.426;2023-03-16T04:22:55;4.70;59.20
17415;DHT22;8825;48.086;16.426;2023-03-16T04:25:25;4.70;59.20
17415;DHT22;8825;48.086;16.426;2023-03-16T04:27:53;4.70;59.20
17415;DHT22;8825;48.086;16.426;2023-03-16T04:30:21;4.70;59.30
17415;DHT22;8825;48.086;16.426;2023-03-16T04:32:51;4.70;59.20
17415;DHT22;8825;48.086;16.426;2023-03-16T04:35:19;4.70;59.20
17415;DHT22;8825;48.086;16.426;2023-03-16T04:37:47;4.70;59.20
17415;DHT22;8825;48.086;16.426;2023-03-16T04:40:15;4.70;59.20
17415;DHT22;8825;48.086;16.426;2023-03-16T04:42:46;4.70;59.30
17415;DHT22;8825;48.086;16.426;2023-03-16T04:45:15;4.70;59.30
17415;DHT22;8825;48.086;16.426;2023-03-16T04:47:43;4.60;59.20
17415;DHT22;8825;48.086;16.426;2023-03-16T04:50:12;4.60;59.30
17415;DHT22;8825;48.086;16.426;2023-03-16T04:52:39;4.60;60.00
17415;DHT22;8825;48.086;16.426;2023-03-16T04:55:07;4.60;59.40
17415;DHT22;8825;48.086;16.426;2023-03-16T04:57:34;4.60;59.40
17415;DHT22;8825;48.086;16.426;2023-03-16T05:00:04;4.50;59.40
17415;DHT22;8825;48.086;16.426;2023-03-16T05:02:33;4.50;59.40
17415;DHT22;8825;48.086;16.426;2023-03-16T05:05:01;4.50;59.50
17415;DHT22;8825;48.086;16.426;2023-03-16T05:07:29;4.50;59.50
17415;DHT22;8825;48.086;16.426;2023-03-16T05:09:57;4.50;59.60
17415;DHT22;8825;48.086;16.426;2023-03-16T05:12:25;4.50;59.60
17415;DHT22;8825;48.086;16.426;2023-03-16T05:14:52;4.50;59.60
17415;DHT22;8825;48.086;16.426;2023-03-16T05:17:20;4.40;59.70
17415;DHT22;8825;48.086;16.426;2023-03-16T05:19:48;4.40;59.70
17415;DHT22;8825;48.086;16.426;2023-03-16T05:22:15;4.40;59.70
17415;DHT22;8825;48.086;16.426;2023-03-16T05:24:43;4.40;59.70
17415;DHT22;8825;48.086;16.426;2023-03-16T05:27:10;4.40;59.80
17415;DHT22;8825;48.086;16.426;2023-03-16T05:29:38;4.40;59.80
17415;DHT22;8825;48.086;16.426;2023-03-16T05:32:06;4.40;60.60
17415;DHT22;8825;48.086;16.426;2023-03-16T05:34:34;4.40;59.80
17415;DHT22;8825;48.086;16.426;2023-03-16T05:37:01;4.50;59.90
17415;DHT22;8825;48.086;16.426;2023-03-16T05:39:29;4.50;60.00
17415;DHT22;8825;48.086;16.426;2023-03-16T05:41:57;4.50;60.10
17415;DHT22;8825;48.086;16.426;2023-03-16T05:44:25;4.50;60.10
17415;DHT22;8825;48.086;16.426;2023-03-16T05:46:52;4.50;60.00
17415;DHT22;8825;48.086;16.426;2023-03-16T05:49:20;4.50;60.00
17415;DHT22;8825;48.086;16.426;2023-03-16T05:51:47;4.60;60.00
17415;DHT22;8825;48.086;16.426;2023-03-16T05:54:15;4.60;60.00
17415;DHT22;8825;48.086;16.426;2023-03-16T05:56:43;4.60;60.00
17415;DHT22;8825;48.086;16.426;2023-03-16T05:59:10;4.70;60.00
17415;DHT22;8825;48.086;16.426;2023-03-16T06:01:38;4.70;60.00
17415;DHT22;8825;48.086;16.426;2023-03-16T06:04:05;4.80;60.00
17415;DHT22;8825;48.086;16.426;2023-03-16T06:06:33;4.80;59.90
17415;DHT22;8825;48.086;16.426;2023-03-16T06:09:01;4.80;59.80
17415;DHT22;8825;48.086;16.426;2023-03-16T06:11:28;4.80;59.80
17415;DHT22;8825;48.086;16.426;2023-03-16T06:13:58;4.90;59.90
17415;DHT22;8825;48.086;16.426;2023-03-16T06:16:26;4.90;59.80
17415;DHT22;8825;48.086;16.426;2023-03-16T06:18:53;4.90;59.80
17415;DHT22;8825;48.086;16.426;2023-03-16T06:21:22;5.00;59.80
17415;DHT22;8825;48.086;16.426;2023-03-16T06:23:49;5.00;59.80
17415;DHT22;8825;48.086;16.426;2023-03-16T06:26:17;5.10;59.80
17415;DHT22;8825;48.086;16.426;2023-03-16T06:28:44;5.10;59.70
17415;DHT22;8825;48.086;16.426;2023-03-16T06:31:12;5.10;59.60
17415;DHT22;8825;48.086;16.426;2023-03-16T06:33:39;5.20;59.60
17415;DHT22;8825;48.086;16.426;2023-03-16T06:36:07;5.20;59.50
17415;DHT22;8825;48.086;16.426;2023-03-16T06:38:34;5.20;59.50
17415;DHT22;8825;48.086;16.426;2023-03-16T06:41:02;5.30;59.50
17415;DHT22;8825;48.086;16.426;2023-03-16T06:43:30;5.40;59.40
17415;DHT22;8825;48.086;16.426;2023-03-16T06:45:57;5.40;59.30
17415;DHT22;8825;48.086;16.426;2023-03-16T06:48:24;5.40;59.10
17415;DHT22;8825;48.086;16.426;2023-03-16T06:50:52;5.50;59.10
17415;DHT22;8825;48.086;16.426;2023-03-16T06:53:20;5.60;58.90
17415;DHT22;8825;48.086;16.426;2023-03-16T06:55:48;5.60;58.80
17415;DHT22;8825;48.086;16.426;2023-03-16T06:58:15;5.70;58.70
17415;DHT22;8825;48.086;16.426;2023-03-16T07:00:43;5.70;58.60
17415;DHT22;8825;48.086;16.426;2023-03-16T07:03:10;5.80;58.40
17415;DHT22;8825;48.086;16.426;2023-03-16T07:05:38;5.80;58.20
17415;DHT22;8825;48.086;16.426;2023-03-16T07:08:05;5.90;58.10
17415;DHT22;8825;48.086;16.426;2023-03-16T07:10:33;6.00;58.00
17415;DHT22;8825;48.086;16.426;2023-03-16T07:13:00;6.10;57.80
17415;DHT22;8825;48.086;16.426;2023-03-16T07:15:29;6.10;57.50
17415;DHT22;8825;48.086;16.426;2023-03-16T07:17:57;6.20;57.40
17415;DHT22;8825;48.086;16.426;2023-03-16T07:20:24;6.20;57.20
17415;DHT22;8825;48.086;16.426;2023-03-16T07:22:53;6.30;57.20
17415;DHT22;8825;48.086;16.426;2023-03-16T07:25:21;6.40;57.00
17415;DHT22;8825;48.086;16.426;2023-03-16T07:27:48;6.40;56.80
17415;DHT22;8825;48.086;16.426;2023-03-16T07:30:16;6.40;56.50
17415;DHT22;8825;48.086;16.426;2023-03-16T07:32:43;6.50;56.30
17415;DHT22;8825;48.086;16.426;2023-03-16T07:35:11;6.60;56.20
17415;DHT22;8825;48.086;16.426;2023-03-16T07:37:38;6.60;56.00
17415;DHT22;8825;48.086;16.426;2023-03-16T07:40:08;6.70;55.80
17415;DHT22;8825;48.086;16.426;2023-03-16T07:42:36;6.80;55.60
17415;DHT22;8825;48.086;16.426;2023-03-16T07:45:05;6.80;55.50
17415;DHT22;8825;48.086;16.426;2023-03-16T07:47:33;6.90;55.40
17415;DHT22;8825;48.086;16.426;2023-03-16T07:50:01;6.90;55.20
17415;DHT22;8825;48.086;16.426;2023-03-16T07:52:28;7.00;55.10
17415;DHT22;8825;48.086;16.426;2023-03-16T07:54:56;7.00;54.90
17415;DHT22;8825;48.086;16.426;2023-03-16T07:57:23;7.10;54.80
17415;DHT22;8825;48.086;16.426;2023-03-16T07:59:51;7.10;54.60
17415;DHT22;8825;48.086;16.426;2023-03-16T08:02:19;7.10;54.60
17415;DHT22;8825;48.086;16.426;2023-03-16T08:04:50;7.20;54.50
17415;DHT22;8825;48.086;16.426;2023-03-16T08:07:17;7.20;54.10
17415;DHT22;8825;48.086;16.426;2023-03-16T08:09:45;7.20;53.90
17415;DHT22;8825;48.086;16.426;2023-03-16T08:12:12;7.30;53.70
17415;DHT22;8825;48.086;16.426;2023-03-16T08:14:40;7.30;53.40
17415;DHT22;8825;48.086;16.426;2023-03-16T08:17:07;7.40;53.00
17415;DHT22;8825;48.086;16.426;2023-03-16T08:19:35;7.50;52.90
17415;DHT22;8825;48.086;16.426;2023-03-16T08:22:02;7.50;52.70
17415;DHT22;8825;48.086;16.426;2023-03-16T08:24:31;7.60;52.50
17415;DHT22;8825;48.086;16.426;2023-03-16T08:27:00;7.60;51.60
17415;DHT22;8825;48.086;16.426;2023-03-16T08:29:27;7.60;51.00
17415;DHT22;8825;48.086;16.426;2023-03-16T08:31:55;7.70;51.40
17415;DHT22;8825;48.086;16.426;2023-03-16T08:34:23;7.80;51.20
17415;DHT22;8825;48.086;16.426;2023-03-16T08:36:52;7.80;51.00
17415;DHT22;8825;48.086;16.426;2023-03-16T08:39:20;7.80;50.30
17415;DHT22;8825;48.086;16.426;2023-03-16T08:41:48;7.80;50.10
17415;DHT22;8825;48.086;16.426;2023-03-16T08:44:16;7.90;50.50
17415;DHT22;8825;48.086;16.426;2023-03-16T08:46:44;7.90;50.30
17415;DHT22;8825;48.086;16.426;2023-03-16T08:49:12;8.00;49.30
17415;DHT22;8825;48.086;16.426;2023-03-16T08:51:40;8.10;48.60
17415;DHT22;8825;48.086;16.426;2023-03-16T08:54:07;8.10;47.80
17415;DHT22;8825;48.086;16.426;2023-03-16T08:56:35;8.20;46.70
17415;DHT22;8825;48.086;16.426;2023-03-16T08:59:03;8.20;45.80
17415;DHT22;8825;48.086;16.426;2023-03-16T09:01:31;8.20;46.00
17415;DHT22;8825;48.086;16.426;2023-03-16T09:03:59;8.30;46.50
17415;DHT22;8825;48.086;16.426;2023-03-16T09:06:28;8.50;46.40
17415;DHT22;8825;48.086;16.426;2023-03-16T09:08:56;8.60;46.30
17415;DHT22;8825;48.086;16.426;2023-03-16T09:11:24;8.70;46.00
17415;DHT22;8825;48.086;16.426;2023-03-16T09:13:53;8.80;46.10
17415;DHT22;8825;48.086;16.426;2023-03-16T09:16:21;8.90;45.70
17415;DHT22;8825;48.086;16.426;2023-03-16T09:18:50;9.10;45.60
17415;DHT22;8825;48.086;16.426;2023-03-16T09:21:19;9.50;45.40
17415;DHT22;8825;48.086;16.426;2023-03-16T09:23:47;10.00;44.60
17415;DHT22;8825;48.086;16.426;2023-03-16T09:26:14;10.40;41.00
17415;DHT22;8825;48.086;16.426;2023-03-16T09:28:42;10.70;40.10
17415;DHT22;8825;48.086;16.426;2023-03-16T09:31:18;11.10;39.90
17415;DHT22;8825;48.086;16.426;2023-03-16T09:33:43;11.50;38.60
17415;DHT22;8825;48.086;16.426;2023-03-16T09:36:12;12.00;38.50
17415;DHT22;8825;48.086;16.426;2023-03-16T09:38:40;12.40;37.40
17415;DHT22;8825;48.086;16.426;2023-03-16T09:41:21;12.80;37.10
17415;DHT22;8825;48.086;16.426;2023-03-16T09:46:44;13.30;35.00
17415;DHT22;8825;48.086;16.426;2023-03-16T09:49:15;13.40;32.30
17415;DHT22;8825;48.086;16.426;2023-03-16T09:54:57;13.60;29.80
17415;DHT22;8825;48.086;16.426;2023-03-16T09:57:27;13.70;29.80
17415;DHT22;8825;48.086;16.426;2023-03-16T10:00:21;13.80;28.90
17415;DHT22;8825;48.086;16.426;2023-03-16T10:02:48;13.80;29.30
17415;DHT22;8825;48.086;16.426;2023-03-16T10:05:19;13.80;29.00
17415;DHT22;8825;48.086;16.426;2023-03-16T10:13:54;14.20;29.20
17415;DHT22;8825;48.086;16.426;2023-03-16T10:16:51;14.40;28.70
17415;DHT22;8825;48.086;16.426;2023-03-16T10:19:35;14.40;29.00
17415;DHT22;8825;48.086;16.426;2023-03-16T10:22:20;14.50;28.60
17415;DHT22;8825;48.086;16.426;2023-03-16T10:24:55;14.60;28.70
17415;DHT22;8825;48.086;16.426;2023-03-16T10:27:26;14.90;29.10
17415;DHT22;8825;48.086;16.426;2023-03-16T10:29:53;15.00;28.40
17415;DHT22;8825;48.086;16.426;2023-03-16T10:32:20;15.10;27.70
17415;DHT22;8825;48.086;16.426;2023-03-16T10:34:53;15.10;27.40
17415;DHT22;8825;48.086;16.426;2023-03-16T10:37:20;15.20;27.60
17415;DHT22;8825;48.086;16.426;2023-03-16T10:39:49;15.20;27.30
17415;DHT22;8825;48.086;16.426;2023-03-16T10:42:19;15.30;27.50
17415;DHT22;8825;48.086;16.426;2023-03-16T10:44:47;15.50;27.20
17415;DHT22;8825;48.086;16.426;2023-03-16T10:47:27;15.70;27.50
17415;DHT22;8825;48.086;16.426;2023-03-16T10:49:48;16.00;26.90
17415;DHT22;8825;48.086;16.426;2023-03-16T10:52:36;16.00;26.50
17415;DHT22;8825;48.086;16.426;2023-03-16T10:55:29;15.90;26.10
17415;DHT22;8825;48.086;16.426;2023-03-16T10:57:55;15.80;26.50
17415;DHT22;8825;48.086;16.426;2023-03-16T11:00:25;15.60;26.50
17415;DHT22;8825;48.086;16.426;2023-03-16T11:02:55;15.50;26.90
17415;DHT22;8825;48.086;16.426;2023-03-16T11:05:30;15.30;26.90
17415;DHT22;8825;48.086;16.426;2023-03-16T11:08:12;15.20;27.50
17415;DHT22;8825;48.086;16.426;2023-03-16T11:10:44;15.20;28.10
17415;DHT22;8825;48.086;16.426;2023-03-16T11:13:18;15.20;28.20
17415;DHT22;8825;48.086;16.426;2023-03-16T11:16:01;15.20;28.40
17415;DHT22;8825;48.086;16.426;2023-03-16T11:18:49;15.20;28.90
17415;DHT22;8825;48.086;16.426;2023-03-16T11:21:40;15.20;28.70
17415;DHT22;8825;48.086;16.426;2023-03-16T11:24:17;15.30;28.30
17415;DHT22;8825;48.086;16.426;2023-03-16T11:26:39;15.10;27.90
17415;DHT22;8825;48.086;16.426;2023-03-16T11:29:21;15.00;28.70
17415;DHT22;8825;48.086;16.426;2023-03-16T11:31:53;15.00;28.00
17415;DHT22;8825;48.086;16.426;2023-03-16T11:34:29;14.90;27.50
17415;DHT22;8825;48.086;16.426;2023-03-16T11:37:04;14.90;27.50
17415;DHT22;8825;48.086;16.426;2023-03-16T11:39:30;14.80;28.70
17415;DHT22;8825;48.086;16.426;2023-03-16T11:42:32;14.90;29.10
17415;DHT22;8825;48.086;16.426;2023-03-16T11:58:48;14.70;28.30
17415;DHT22;8825;48.086;16.426;2023-03-16T12:03:50;14.50;28.60
17415;DHT22;8825;48.086;16.426;2023-03-16T12:11:45;14.30;28.60
17415;DHT22;8825;48.086;16.426;2023-03-16T12:14:13;14.30;28.70
17415;DHT22;8825;48.086;16.426;2023-03-16T12:16:54;14.30;28.60
17415;DHT22;8825;48.086;16.426;2023-03-16T12:19:40;14.40;28.70
17415;DHT22;8825;48.086;16.426;2023-03-16T12:22:16;14.30;28.00
17415;DHT22;8825;48.086;16.426;2023-03-16T12:24:45;14.20;27.50
17415;DHT22;8825;48.086;16.426;2023-03-16T12:27:31;14.00;27.60
17415;DHT22;8825;48.086;16.426;2023-03-16T12:30:06;14.00;28.40
17415;DHT22;8825;48.086;16.426;2023-03-16T12:32:50;14.10;28.90
17415;DHT22;8825;48.086;16.426;2023-03-16T12:35:20;14.20;29.40
17415;DHT22;8825;48.086;16.426;2023-03-16T12:46:13;14.40;28.90
17415;DHT22;8825;48.086;16.426;2023-03-16T12:48:43;14.30;28.30
17415;DHT22;8825;48.086;16.426;2023-03-16T12:51:12;14.10;27.40
17415;DHT22;8825;48.086;16.426;2023-03-16T12:56:21;14.10;28.30
17415;DHT22;8825;48.086;16.426;2023-03-16T12:58:46;14.30;28.30
17415;DHT22;8825;48.086;16.426;2023-03-16T13:01:17;14.30;28.30
17415;DHT22;8825;48.086;16.426;2023-03-16T13:03:49;14.30;27.90
17415;DHT22;8825;48.086;16.426;2023-03-16T13:06:23;14.30;27.40
17415;DHT22;8825;48.086;16.426;2023-03-16T13:08:57;14.20;27.20
17415;DHT22;8825;48.086;16.426;2023-03-16T13:11:22;14.20;27.70
17415;DHT22;8825;48.086;16.426;2023-03-16T13:14:03;14.30;27.70
17415;DHT22;8825;48.086;16.426;2023-03-16T13:16:31;14.20;28.20
17415;DHT22;8825;48.086;16.426;2023-03-16T13:18:55;14.10;27.40
17415;DHT22;8825;48.086;16.426;2023-03-16T13:21:40;14.00;27.70
17415;DHT22;8825;48.086;16.426;2023-03-16T13:24:25;13.80;27.60
17415;DHT22;8825;48.086;16.426;2023-03-16T13:27:03;13.70;27.50
17415;DHT22;8825;48.086;16.426;2023-03-16T13:29:32;13.70;27.60
17415;DHT22;8825;48.086;16.426;2023-03-16T13:32:07;13.60;27.60
17415;DHT22;8825;48.086;16.426;2023-03-16T13:34:39;13.60;27.80
17415;DHT22;8825;48.086;16.426;2023-03-16T13:37:15;13.60;28.10
17415;DHT22;8825;48.086;16.426;2023-03-16T13:39:51;13.60;28.30
17415;DHT22;8825;48.086;16.426;2023-03-16T13:42:22;13.70;28.40
17415;DHT22;8825;48.086;16.426;2023-03-16T13:45:06;13.70;28.10
17415;DHT22;8825;48.086;16.426;2023-03-16T13:47:25;13.60;28.30
17415;DHT22;8825;48.086;16.426;2023-03-16T13:49:57;13.60;28.00
17415;DHT22;8825;48.086;16.426;2023-03-16T13:52:33;13.50;28.00
17415;DHT22;8825;48.086;16.426;2023-03-16T13:55:05;13.40;28.20
17415;DHT22;8825;48.086;16.426;2023-03-16T13:57:36;13.40;27.90
17415;DHT22;8825;48.086;16.426;2023-03-16T14:02:42;13.30;27.90
17415;DHT22;8825;48.086;16.426;2023-03-16T14:05:20;13.40;28.30
17415;DHT22;8825;48.086;16.426;2023-03-16T14:07:49;13.30;27.90
17415;DHT22;8825;48.086;16.426;2023-03-16T14:10:17;13.20;27.80
17415;DHT22;8825;48.086;16.426;2023-03-16T14:12:55;13.20;27.90
17415;DHT22;8825;48.086;16.426;2023-03-16T14:15:28;13.20;28.00
17415;DHT22;8825;48.086;16.426;2023-03-16T14:18:12;13.10;28.30
17415;DHT22;8825;48.086;16.426;2023-03-16T14:20:39;13.10;28.60
17415;DHT22;8825;48.086;16.426;2023-03-16T14:25:44;12.90;29.20
17415;DHT22;8825;48.086;16.426;2023-03-16T14:28:15;13.00;29.30
17415;DHT22;8825;48.086;16.426;2023-03-16T14:30:50;12.90;29.00
17415;DHT22;8825;48.086;16.426;2023-03-16T14:33:30;12.80;28.90
17415;DHT22;8825;48.086;16.426;2023-03-16T14:36:05;12.80;28.90
17415;DHT22;8825;48.086;16.426;2023-03-16T14:38:30;12.80;29.00
17415;DHT22;8825;48.086;16.426;2023-03-16T14:43:36;12.70;28.80
17415;DHT22;8825;48.086;16.426;2023-03-16T14:46:10;12.70;28.80
17415;DHT22;8825;48.086;16.426;2023-03-16T14:48:37;12.60;28.80
17415;DHT22;8825;48.086;16.426;2023-03-16T14:51:10;12.60;28.60
17415;DHT22;8825;48.086;16.426;2023-03-16T14:53:37;12.50;28.60
17415;DHT22;8825;48.086;16.426;2023-03-16T14:56:09;12.50;28.80
17415;DHT22;8825;48.086;16.426;2023-03-16T15:02:02;12.40;28.90
17415;DHT22;8825;48.086;16.426;2023-03-16T15:04:34;12.40;28.80
17415;DHT22;8825;48.086;16.426;2023-03-16T15:07:07;12.40;28.70
17415;DHT22;8825;48.086;16.426;2023-03-16T15:09:38;12.30;28.70
17415;DHT22;8825;48.086;16.426;2023-03-16T15:12:16;12.30;28.60
17415;DHT22;8825;48.086;16.426;2023-03-16T15:14:45;12.20;28.60
17415;DHT22;8825;48.086;16.426;2023-03-16T15:17:32;12.20;28.70
17415;DHT22;8825;48.086;16.426;2023-03-16T15:19:59;12.10;28.90
17415;DHT22;8825;48.086;16.426;2023-03-16T15:22:35;12.10;29.20
17415;DHT22;8825;48.086;16.426;2023-03-16T15:25:22;12.00;29.20
17415;DHT22;8825;48.086;16.426;2023-03-16T15:27:51;12.00;29.00
17415;DHT22;8825;48.086;16.426;2023-03-16T15:30:24;11.90;29.00
17415;DHT22;8825;48.086;16.426;2023-03-16T15:32:52;11.90;29.10
17415;DHT22;8825;48.086;16.426;2023-03-16T15:35:20;11.80;29.20
17415;DHT22;8825;48.086;16.426;2023-03-16T15:37:48;11.80;29.10
17415;DHT22;8825;48.086;16.426;2023-03-16T15:40:21;11.80;29.10
17415;DHT22;8825;48.086;16.426;2023-03-16T15:42:49;11.80;29.20
17415;DHT22;8825;48.086;16.426;2023-03-16T15:45:19;11.70;29.10
17415;DHT22;8825;48.086;16.426;2023-03-16T15:47:48;11.70;29.10
17415;DHT22;8825;48.086;16.426;2023-03-16T15:50:18;11.60;29.10
17415;DHT22;8825;48.086;16.426;2023-03-16T15:52:54;11.60;29.20
17415;DHT22;8825;48.086;16.426;2023-03-16T15:55:22;11.60;29.00
17415;DHT22;8825;48.086;16.426;2023-03-16T15:57:55;11.50;28.90
17415;DHT22;8825;48.086;16.426;2023-03-16T16:00:29;11.50;28.90
17415;DHT22;8825;48.086;16.426;2023-03-16T16:02:59;11.40;29.30
17415;DHT22;8825;48.086;16.426;2023-03-16T16:05:27;11.40;29.80
17415;DHT22;8825;48.086;16.426;2023-03-16T16:07:57;11.30;30.50
17415;DHT22;8825;48.086;16.426;2023-03-16T16:10:25;11.30;30.60
17415;DHT22;8825;48.086;16.426;2023-03-16T16:12:54;11.30;30.20
17415;DHT22;8825;48.086;16.426;2023-03-16T16:15:29;11.20;30.30
17415;DHT22;8825;48.086;16.426;2023-03-16T16:17:55;11.20;30.50
17415;DHT22;8825;48.086;16.426;2023-03-16T16:20:28;11.10;30.40
17415;DHT22;8825;48.086;16.426;2023-03-16T16:22:58;11.10;30.40
17415;DHT22;8825;48.086;16.426;2023-03-16T16:25:48;11.00;30.30
17415;DHT22;8825;48.086;16.426;2023-03-16T16:27:57;11.00;30.40
17415;DHT22;8825;48.086;16.426;2023-03-16T16:30:27;11.00;30.40
17415;DHT22;8825;48.086;16.426;2023-03-16T16:32:56;11.00;30.40
17415;DHT22;8825;48.086;16.426;2023-03-16T16:35:26;11.00;30.60
17415;DHT22;8825;48.086;16.426;2023-03-16T16:37:54;10.90;30.60
17415;DHT22;8825;48.086;16.426;2023-03-16T16:40:23;10.90;30.60
17415;DHT22;8825;48.086;16.426;2023-03-16T16:42:52;10.80;30.40
17415;DHT22;8825;48.086;16.426;2023-03-16T16:45:24;10.80;30.40
17415;DHT22;8825;48.086;16.426;2023-03-16T16:47:53;10.80;30.40
17415;DHT22;8825;48.086;16.426;2023-03-16T16:50:28;10.70;30.40
17415;DHT22;8825;48.086;16.426;2023-03-16T16:52:53;10.60;30.70
17415;DHT22;8825;48.086;16.426;2023-03-16T16:55:24;10.60;31.00
17415;DHT22;8825;48.086;16.426;2023-03-16T16:57:53;10.50;31.40
17415;DHT22;8825;48.086;16.426;2023-03-16T17:00:23;10.50;31.50
17415;DHT22;8825;48.086;16.426;2023-03-16T17:02:53;10.50;31.70
17415;DHT22;8825;48.086;16.426;2023-03-16T17:05:27;10.40;31.70